createdAt,value
2019-04-07T00:00:44.502Z,53.35
2019-04-07T00:01:51.440Z,48.80
2019-04-07T00:02:57.090Z,47.58
2019-04-07T00:04:02.581Z,47.62
2019-04-07T00:05:13.040Z,52.75
2019-04-07T00:06:14.475Z,50.90
2019-04-07T00:07:20.090Z,50.75
2019-04-07T00:08:25.297Z,51.37
2019-04-07T00:09:30.362Z,48.63
2019-04-07T00:10:35.987Z,48.08
2019-04-07T00:11:40.924Z,49.73
2019-04-07T00:12:45.523Z,48.87
2019-04-07T00:13:51.787Z,53.60
2019-04-07T00:14:56.448Z,52.55
2019-04-07T00:16:01.274Z,49.75
2019-04-07T00:17:06.814Z,48.87
2019-04-07T00:18:11.763Z,53.50
2019-04-07T00:19:17.241Z,50.52
2019-04-07T00:20:22.045Z,49.75
2019-04-07T00:21:27.297Z,47.70
2019-04-07T00:22:32.386Z,48.98
2019-04-07T00:23:37.586Z,48.63
2019-04-07T00:24:42.484Z,50.90
2019-04-07T00:25:47.147Z,50.85
2019-04-07T00:26:52.516Z,49.70
2019-04-07T00:27:57.531Z,46.75
2019-04-07T00:29:02.435Z,49.70
2019-04-07T00:30:08.904Z,49.00
2019-04-07T00:31:13.501Z,50.30
2019-04-07T00:32:18.664Z,49.73
2019-04-07T00:33:24.118Z,52.48
2019-04-07T00:34:28.933Z,49.35
2019-04-07T00:35:33.674Z,51.92
2019-04-07T00:36:38.661Z,49.65
2019-04-07T00:37:43.993Z,53.33
2019-04-07T00:38:48.943Z,53.10
2019-04-07T00:39:54.142Z,52.93
2019-04-07T00:40:59.251Z,52.80
2019-04-07T00:42:04.182Z,51.70
2019-04-07T00:43:09.980Z,51.13
2019-04-07T00:44:14.891Z,50.28
2019-04-07T00:45:20.636Z,52.05
2019-04-07T00:46:25.878Z,59.10
2019-04-07T00:47:31.192Z,57.60
2019-04-07T00:48:36.434Z,55.30
2019-04-07T00:49:42.191Z,55.67
2019-04-07T00:50:48.130Z,57.23
2019-04-07T00:51:54.307Z,50.45
2019-04-07T00:53:00.198Z,52.03
2019-04-07T00:54:05.073Z,55.03
2019-04-07T00:55:09.958Z,59.90
2019-04-07T00:56:15.780Z,54.00
2019-04-07T00:57:21.088Z,55.80
2019-04-07T00:58:26.888Z,53.23
2019-04-07T00:59:32.004Z,52.62
2019-04-07T01:00:38.080Z,55.50
2019-04-07T01:01:42.775Z,51.58
2019-04-07T01:02:47.503Z,51.83
2019-04-07T01:03:55.667Z,52.20
2019-04-07T01:05:00.342Z,58.05
2019-04-07T01:06:04.983Z,54.98
2019-04-07T01:07:10.292Z,57.93
2019-04-07T01:08:15.550Z,55.45
2019-04-07T01:09:20.416Z,53.87
2019-04-07T01:10:26.100Z,55.28
2019-04-07T01:11:30.590Z,51.48
2019-04-07T01:12:35.904Z,54.95
2019-04-07T01:13:40.830Z,58.98
2019-04-07T01:14:46.678Z,53.13
2019-04-07T01:15:51.426Z,51.73
2019-04-07T01:16:56.400Z,52.62
2019-04-07T01:18:02.124Z,52.90
2019-04-07T01:19:07.726Z,54.27
2019-04-07T01:20:12.701Z,53.58
2019-04-07T01:21:17.742Z,52.90
2019-04-07T01:22:23.246Z,52.53
2019-04-07T01:23:28.258Z,52.03
2019-04-07T01:24:34.073Z,52.75
2019-04-07T01:25:39.531Z,56.00
2019-04-07T01:26:44.725Z,54.70
2019-04-07T01:27:50.042Z,49.80
2019-04-07T01:28:55.441Z,52.53
2019-04-07T01:30:00.813Z,52.88
2019-04-07T01:31:07.125Z,54.25
2019-04-07T01:32:11.584Z,49.95
2019-04-07T01:33:16.526Z,51.83
2019-04-07T01:34:21.489Z,51.65
2019-04-07T01:35:26.781Z,49.85
2019-04-07T01:36:32.513Z,52.05
2019-04-07T01:37:37.861Z,52.78
2019-04-07T01:38:43.290Z,49.25
2019-04-07T01:39:48.326Z,51.95
2019-04-07T01:41:03.134Z,51.40
2019-04-07T01:42:30.167Z,56.42
2019-04-07T01:43:49.449Z,52.03
2019-04-07T01:45:12.735Z,55.85
2019-04-07T01:46:42.763Z,49.73
2019-04-07T01:47:57.019Z,50.28
2019-04-07T01:49:11.619Z,50.17
2019-04-07T01:50:25.513Z,53.33
2019-04-07T01:51:50.386Z,49.73
2019-04-07T01:53:20.351Z,52.48
2019-04-07T01:54:53.787Z,52.75
2019-04-07T01:56:08.158Z,52.60
2019-04-07T01:57:32.317Z,53.80
2019-04-07T01:59:12.175Z,54.90
2019-04-07T02:00:34.626Z,49.98
2019-04-07T02:01:57.119Z,52.80
2019-04-07T02:03:07.512Z,52.38
2019-04-07T02:04:23.692Z,53.40
2019-04-07T02:05:59.224Z,48.98
2019-04-07T02:07:22.661Z,50.10
2019-04-07T02:08:45.448Z,51.20
2019-04-07T02:10:15.204Z,51.33
2019-04-07T02:11:41.877Z,50.67
2019-04-07T02:13:04.350Z,51.35
2019-04-07T02:14:28.248Z,53.13
2019-04-07T02:15:52.682Z,48.60
2019-04-07T02:17:09.864Z,50.58
2019-04-07T02:18:23.457Z,48.02
2019-04-07T02:19:35.954Z,46.08
2019-04-07T02:21:13.037Z,49.27
2019-04-07T02:22:39.684Z,48.15
2019-04-07T02:23:57.597Z,45.48
2019-04-07T02:25:11.965Z,47.67
2019-04-07T02:26:23.628Z,47.48
2019-04-07T02:27:34.817Z,47.48
2019-04-07T02:29:10.483Z,47.08
2019-04-07T02:30:33.238Z,49.10
2019-04-07T02:32:09.750Z,47.83
2019-04-07T02:33:39.536Z,49.55
2019-04-07T02:34:50.949Z,47.10
2019-04-07T02:36:17.886Z,44.93
2019-04-07T02:37:36.984Z,49.88
2019-04-07T02:39:03.539Z,44.75
2019-04-07T02:40:26.708Z,43.75
2019-04-07T02:42:05.996Z,49.03
2019-04-07T02:43:24.166Z,47.48
2019-04-07T02:44:42.690Z,48.30
2019-04-07T02:46:05.857Z,47.85
2019-04-07T02:47:15.973Z,48.48
2019-04-07T02:48:46.733Z,49.00
2019-04-07T02:50:17.669Z,42.55
2019-04-07T02:51:34.366Z,45.65
2019-04-07T02:52:54.831Z,48.48
2019-04-07T02:54:17.621Z,47.58
2019-04-07T02:55:30.040Z,43.48
2019-04-07T02:57:09.896Z,44.83
2019-04-07T02:58:36.430Z,42.00
2019-04-07T02:59:48.558Z,41.90
2019-04-07T03:01:18.498Z,38.92
2019-04-07T03:02:31.928Z,45.63
2019-04-07T03:03:50.234Z,43.63
2019-04-07T03:05:06.442Z,44.27
2019-04-07T03:06:50.009Z,46.10
2019-04-07T03:08:01.597Z,43.92
2019-04-07T03:09:22.077Z,47.35
2019-04-07T03:10:48.739Z,44.40
2019-04-07T03:12:05.460Z,44.03
2019-04-07T03:13:27.133Z,43.80
2019-04-07T03:14:54.369Z,43.83
2019-04-07T03:16:11.914Z,49.45
2019-04-07T03:17:30.085Z,42.60
2019-04-07T03:18:40.818Z,43.38
2019-04-07T03:19:54.105Z,42.33
2019-04-07T03:21:19.448Z,42.75
2019-04-07T03:22:42.430Z,40.43
2019-04-07T03:24:06.381Z,42.88
2019-04-07T03:25:22.119Z,42.93
2019-04-07T03:26:49.087Z,44.42
2019-04-07T03:28:18.124Z,42.23
2019-04-07T03:29:49.323Z,44.30
2019-04-07T03:31:12.839Z,44.55
2019-04-07T03:32:40.026Z,40.30
2019-04-07T03:34:04.133Z,41.18
2019-04-07T03:35:20.951Z,41.37
2019-04-07T03:36:41.125Z,46.68
2019-04-07T03:38:00.930Z,41.58
2019-04-07T03:39:26.624Z,40.73
2019-04-07T03:40:44.107Z,44.03
2019-04-07T03:41:55.552Z,42.25
2019-04-07T03:43:09.389Z,42.38
2019-04-07T03:44:23.162Z,42.85
2019-04-07T03:46:02.469Z,42.83
2019-04-07T03:47:14.263Z,41.28
2019-04-07T03:48:41.598Z,43.35
2019-04-07T03:49:52.978Z,46.28
2019-04-07T03:51:06.787Z,47.27
2019-04-07T03:52:22.409Z,41.42
2019-04-07T03:53:46.180Z,43.30
2019-04-07T03:55:15.642Z,44.27
2019-04-07T03:56:39.889Z,47.17
2019-04-07T03:58:09.941Z,47.08
2019-04-07T03:59:33.398Z,43.52
2019-04-07T04:01:35.585Z,45.83
2019-04-07T04:03:02.613Z,44.93
2019-04-07T04:04:26.356Z,41.48
2019-04-07T04:05:53.865Z,44.45
2019-04-07T04:07:18.027Z,45.35
2019-04-07T04:08:26.935Z,42.65
2019-04-07T04:09:45.585Z,44.88
2019-04-07T04:11:09.570Z,43.48
2019-04-07T04:12:39.681Z,44.03
2019-04-07T04:14:04.584Z,41.63
2019-04-07T04:15:15.007Z,43.35
2019-04-07T04:16:25.727Z,44.63
2019-04-07T04:17:30.688Z,45.52
2019-04-07T04:18:35.528Z,42.00
2019-04-07T04:19:40.981Z,40.52
2019-04-07T04:20:46.409Z,40.38
2019-04-07T04:21:52.432Z,40.45
2019-04-07T04:22:58.263Z,41.73
2019-04-07T04:24:04.151Z,40.80
2019-04-07T04:25:10.718Z,40.78
2019-04-07T04:26:16.064Z,46.08
2019-04-07T04:27:21.526Z,42.85
2019-04-07T04:28:27.341Z,44.90
2019-04-07T04:29:33.224Z,47.60
2019-04-07T04:30:37.980Z,43.45
2019-04-07T04:31:43.414Z,45.48
2019-04-07T04:32:48.427Z,47.40
2019-04-07T04:33:54.460Z,47.05
2019-04-07T04:34:59.486Z,44.00
2019-04-07T04:36:04.550Z,43.42
2019-04-07T04:37:09.509Z,41.75
2019-04-07T04:38:14.437Z,43.02
2019-04-07T04:39:20.948Z,43.00
2019-04-07T04:40:26.338Z,46.37
2019-04-07T04:41:31.294Z,44.60
2019-04-07T04:42:35.971Z,43.38
2019-04-07T04:43:41.100Z,44.80
2019-04-07T04:44:46.359Z,45.30
2019-04-07T04:45:53.221Z,46.48
2019-04-07T04:46:58.606Z,47.83
2019-04-07T04:48:04.458Z,45.20
2019-04-07T04:49:09.269Z,41.68
2019-04-07T04:50:14.819Z,46.65
2019-04-07T04:51:19.963Z,43.78
2019-04-07T04:52:25.155Z,42.80
2019-04-07T04:53:30.850Z,44.48
2019-04-07T04:54:36.155Z,48.17
2019-04-07T04:55:40.964Z,48.70
2019-04-07T04:56:46.863Z,46.70
2019-04-07T04:57:51.580Z,51.83
2019-04-07T04:58:56.616Z,43.42
2019-04-07T05:00:01.897Z,47.93
2019-04-07T05:01:07.792Z,43.78
2019-04-07T05:02:12.250Z,43.80
2019-04-07T05:03:18.026Z,47.53
2019-04-07T05:04:24.068Z,52.33
2019-04-07T05:05:29.214Z,46.75
2019-04-07T05:06:34.723Z,45.48
2019-04-07T05:07:50.241Z,51.10
2019-04-07T05:08:46.857Z,49.15
2019-04-07T05:09:54.542Z,47.40
2019-04-07T05:10:58.843Z,54.15
2019-04-07T05:12:05.604Z,49.80
2019-04-07T05:13:10.559Z,47.10
2019-04-07T05:14:15.414Z,48.55
2019-04-07T05:15:21.019Z,46.73
2019-04-07T05:16:28.893Z,49.23
2019-04-07T05:17:33.781Z,45.60
2019-04-07T05:18:38.947Z,48.42
2019-04-07T05:19:44.352Z,45.75
2019-04-07T05:20:49.942Z,42.40
2019-04-07T05:21:54.932Z,43.42
2019-04-07T05:23:00.976Z,42.53
2019-04-07T05:24:06.819Z,47.80
2019-04-07T05:25:12.375Z,43.60
2019-04-07T05:26:17.918Z,42.93
2019-04-07T05:27:22.885Z,45.80
2019-04-07T05:28:28.666Z,45.58
2019-04-07T05:29:34.187Z,44.67
2019-04-07T05:30:39.235Z,45.65
2019-04-07T05:31:44.770Z,44.10
2019-04-07T05:32:49.962Z,46.80
2019-04-07T05:33:55.366Z,45.17
2019-04-07T05:35:01.052Z,44.58
2019-04-07T05:36:05.974Z,44.93
2019-04-07T05:37:11.499Z,45.70
2019-04-07T05:38:16.606Z,44.95
2019-04-07T05:39:21.753Z,43.23
2019-04-07T05:40:26.691Z,45.88
2019-04-07T05:41:31.343Z,43.68
2019-04-07T05:42:36.300Z,44.85
2019-04-07T05:43:41.531Z,45.85
2019-04-07T05:44:46.317Z,44.73
2019-04-07T05:45:51.524Z,43.00
2019-04-07T05:46:57.003Z,42.78
2019-04-07T05:48:02.135Z,47.78
2019-04-07T05:49:07.596Z,45.48
2019-04-07T05:50:12.318Z,46.13
2019-04-07T05:51:17.689Z,45.15
2019-04-07T05:52:22.793Z,47.13
2019-04-07T05:53:27.816Z,43.33
2019-04-07T05:54:32.853Z,42.80
2019-04-07T05:55:38.155Z,45.12
2019-04-07T05:56:43.715Z,43.60
2019-04-07T05:57:49.656Z,43.35
2019-04-07T05:58:54.935Z,47.15
2019-04-07T06:00:00.405Z,45.50
2019-04-07T06:01:05.368Z,46.68
2019-04-07T06:02:10.943Z,44.58
2019-04-07T06:03:16.505Z,45.08
2019-04-07T06:04:22.022Z,45.10
2019-04-07T06:05:27.118Z,46.77
2019-04-07T06:06:33.012Z,44.25
2019-04-07T06:07:38.260Z,45.25
2019-04-07T06:08:43.122Z,45.70
2019-04-07T06:09:51.267Z,50.15
2019-04-07T06:10:59.992Z,42.73
2019-04-07T06:12:05.998Z,44.25
2019-04-07T06:13:11.102Z,46.28
2019-04-07T06:14:16.488Z,44.50
2019-04-07T06:15:23.187Z,46.85
2019-04-07T06:16:28.820Z,42.35
2019-04-07T06:17:33.643Z,46.13
2019-04-07T06:18:38.832Z,41.53
2019-04-07T06:19:44.437Z,42.10
2019-04-07T06:20:50.372Z,46.33
2019-04-07T06:21:55.593Z,44.25
2019-04-07T06:23:00.378Z,45.80
2019-04-07T06:24:05.133Z,43.13
2019-04-07T06:25:11.021Z,44.40
2019-04-07T06:26:17.285Z,44.40
2019-04-07T06:27:22.789Z,38.70
2019-04-07T06:28:29.642Z,44.13
2019-04-07T06:29:34.540Z,37.75
2019-04-07T06:30:39.564Z,40.28
2019-04-07T06:31:44.759Z,42.40
2019-04-07T06:32:49.622Z,40.98
2019-04-07T06:33:55.189Z,39.65
2019-04-07T06:35:00.584Z,38.60
2019-04-07T06:36:05.662Z,38.55
2019-04-07T06:37:10.762Z,37.20
2019-04-07T06:38:16.409Z,36.17
2019-04-07T06:39:21.524Z,38.98
2019-04-07T06:40:27.310Z,40.35
2019-04-07T06:41:33.369Z,38.90
2019-04-07T06:42:40.437Z,39.03
2019-04-07T06:43:45.386Z,38.90
2019-04-07T06:44:52.210Z,36.50
2019-04-07T06:46:19.632Z,35.08
2019-04-07T06:47:30.812Z,33.28
2019-04-07T06:48:42.557Z,32.58
2019-04-07T06:50:18.983Z,31.97
2019-04-07T06:51:35.658Z,34.15
2019-04-07T06:53:17.461Z,34.92
2019-04-07T06:54:37.710Z,31.48
2019-04-07T06:56:20.738Z,35.20
2019-04-07T06:57:50.738Z,31.10
2019-04-07T06:59:14.992Z,31.87
2019-04-07T07:00:53.610Z,31.48
2019-04-07T07:02:14.128Z,29.52
2019-04-07T07:03:39.032Z,30.32
2019-04-07T07:05:13.604Z,31.93
2019-04-07T07:06:29.474Z,32.88
2019-04-07T07:07:54.033Z,28.83
2019-04-07T07:09:26.461Z,29.57
2019-04-07T07:10:38.863Z,29.70
2019-04-07T07:12:06.287Z,30.62
2019-04-07T07:13:29.864Z,30.48
2019-04-07T07:14:47.830Z,28.17
2019-04-07T07:16:17.479Z,29.12
2019-04-07T07:17:31.113Z,30.05
2019-04-07T07:18:58.750Z,28.65
2019-04-07T07:20:27.568Z,27.32
2019-04-07T07:21:55.637Z,28.60
2019-04-07T07:23:13.348Z,25.75
2019-04-07T07:24:22.581Z,25.97
2019-04-07T07:25:23.445Z,27.02
2019-04-07T07:26:32.949Z,27.73
2019-04-07T07:27:38.914Z,29.82
2019-04-07T07:28:43.874Z,27.48
2019-04-07T07:29:51.883Z,28.62
2019-04-07T07:30:56.500Z,28.98
2019-04-07T07:32:03.773Z,28.47
2019-04-07T07:33:10.856Z,28.25
2019-04-07T07:34:15.575Z,30.23
2019-04-07T07:35:22.277Z,28.95
2019-04-07T07:36:28.449Z,30.00
2019-04-07T07:37:33.407Z,27.80
2019-04-07T07:38:38.582Z,28.73
2019-04-07T07:39:45.119Z,28.23
2019-04-07T07:40:52.652Z,27.62
2019-04-07T07:41:58.342Z,28.23
2019-04-07T07:43:03.520Z,27.25
2019-04-07T07:44:09.597Z,27.50
2019-04-07T07:45:15.535Z,27.37
2019-04-07T07:46:22.841Z,28.35
2019-04-07T07:47:27.708Z,28.30
2019-04-07T07:48:32.401Z,27.40
2019-04-07T07:49:40.350Z,26.10
2019-04-07T07:50:44.618Z,26.52
2019-04-07T07:51:50.568Z,26.23
2019-04-07T07:52:56.163Z,26.90
2019-04-07T07:54:02.090Z,26.82
2019-04-07T07:55:07.235Z,25.23
2019-04-07T07:56:21.471Z,28.95
2019-04-07T07:57:27.274Z,26.33
2019-04-07T07:58:33.645Z,26.73
2019-04-07T07:59:40.228Z,26.65
2019-04-07T08:00:46.080Z,26.40
2019-04-07T08:01:51.679Z,26.12
2019-04-07T08:02:57.295Z,26.73
2019-04-07T08:04:03.482Z,26.68
2019-04-07T08:05:09.253Z,27.10
2019-04-07T08:06:15.027Z,26.42
2019-04-07T08:07:20.328Z,25.88
2019-04-07T08:08:25.689Z,26.80
2019-04-07T08:09:31.786Z,25.70
2019-04-07T08:10:37.581Z,25.72
2019-04-07T08:11:43.524Z,26.02
2019-04-07T08:12:49.600Z,27.22
2019-04-07T08:13:55.364Z,28.00
2019-04-07T08:15:00.718Z,25.97
2019-04-07T08:16:06.337Z,25.35
2019-04-07T08:17:12.294Z,25.57
2019-04-07T08:18:19.606Z,24.98
2019-04-07T08:19:27.864Z,26.10
2019-04-07T08:20:30.632Z,25.92
2019-04-07T08:21:35.770Z,24.67
2019-04-07T08:22:43.632Z,24.65
2019-04-07T08:23:48.178Z,23.95
2019-04-07T08:24:53.549Z,24.20
2019-04-07T08:25:59.108Z,23.52
2019-04-07T08:27:04.080Z,26.52
2019-04-07T08:28:09.304Z,24.52
2019-04-07T08:29:14.933Z,25.23
2019-04-07T08:30:19.906Z,24.40
2019-04-07T08:31:25.110Z,24.47
2019-04-07T08:32:32.277Z,23.07
2019-04-07T08:33:37.458Z,22.87
2019-04-07T08:34:42.657Z,22.87
2019-04-07T08:35:48.030Z,22.27
2019-04-07T08:36:53.257Z,23.10
2019-04-07T08:37:58.501Z,22.40
2019-04-07T08:39:20.852Z,23.05
2019-04-07T08:40:21.718Z,23.12
2019-04-07T08:41:27.830Z,21.85
2019-04-07T08:42:35.796Z,22.35
2019-04-07T08:43:42.937Z,23.25
2019-04-07T08:44:49.754Z,22.62
2019-04-07T08:45:56.919Z,22.22
2019-04-07T08:47:02.584Z,22.80
2019-04-07T08:48:08.967Z,21.55
2019-04-07T08:49:16.938Z,20.52
2019-04-07T08:50:22.780Z,19.82
2019-04-07T08:51:30.774Z,20.70
2019-04-07T08:52:38.533Z,21.68
2019-04-07T08:53:44.056Z,21.05
2019-04-07T08:54:51.346Z,19.92
2019-04-07T08:55:55.448Z,21.55
2019-04-07T08:57:00.238Z,22.00
2019-04-07T08:58:06.590Z,20.50
2019-04-07T08:59:15.855Z,20.20
2019-04-07T09:00:22.148Z,20.20
2019-04-07T09:01:29.612Z,19.87
2019-04-07T09:02:33.524Z,21.45
2019-04-07T09:03:38.832Z,21.90
2019-04-07T09:04:47.330Z,21.73
2019-04-07T09:05:50.324Z,21.50
2019-04-07T09:06:59.453Z,21.57
2019-04-07T09:08:05.547Z,21.87
2019-04-07T09:09:09.069Z,21.48
2019-04-07T09:10:19.911Z,21.33
2019-04-07T09:11:25.306Z,19.65
2019-04-07T09:12:31.360Z,19.60
2019-04-07T09:13:38.387Z,20.27
2019-04-07T09:14:43.993Z,19.52
2019-04-07T09:16:08.217Z,18.55
2019-04-07T09:17:31.570Z,19.35
2019-04-07T09:18:32.109Z,19.12
2019-04-07T09:19:54.801Z,17.85
2019-04-07T09:21:20.383Z,17.95
2019-04-07T09:22:53.810Z,17.85
2019-04-07T09:24:15.211Z,16.77
2019-04-07T09:25:40.709Z,17.37
2019-04-07T09:26:53.287Z,15.90
2019-04-07T09:28:17.896Z,16.67
2019-04-07T09:29:46.055Z,16.42
2019-04-07T09:31:22.237Z,16.07
2019-04-07T09:32:40.676Z,15.53
2019-04-07T09:34:04.465Z,15.55
2019-04-07T09:35:25.709Z,15.13
2019-04-07T09:36:40.743Z,15.20
2019-04-07T09:37:56.777Z,16.73
2019-04-07T09:39:39.480Z,14.80
2019-04-07T09:41:07.246Z,15.58
2019-04-07T09:42:27.964Z,15.20
2019-04-07T09:43:42.744Z,15.18
2019-04-07T09:45:09.564Z,14.35
2019-04-07T09:46:21.950Z,14.00
2019-04-07T09:47:46.845Z,13.72
2019-04-07T09:49:13.848Z,14.10
2019-04-07T09:50:37.541Z,14.13
2019-04-07T09:52:10.198Z,14.05
2019-04-07T09:53:34.980Z,15.08
2019-04-07T09:54:54.620Z,13.30
2019-04-07T09:56:17.292Z,13.83
2019-04-07T09:57:31.426Z,13.65
2019-04-07T09:59:01.457Z,12.58
2019-04-07T10:00:21.668Z,12.55
2019-04-07T10:01:39.996Z,11.85
2019-04-07T10:03:05.956Z,12.00
2019-04-07T10:04:18.270Z,11.48
2019-04-07T10:05:47.926Z,11.48
2019-04-07T10:07:18.357Z,11.00
2019-04-07T10:08:34.188Z,12.37
2019-04-07T10:10:04.551Z,12.10
2019-04-07T10:11:24.001Z,11.20
2019-04-07T10:12:36.468Z,9.43
2019-04-07T10:13:58.817Z,8.30
2019-04-07T10:15:19.935Z,7.78
2019-04-07T10:16:37.923Z,8.20
2019-04-07T10:17:52.017Z,8.05
2019-04-07T10:19:31.679Z,8.48
2019-04-07T10:20:52.737Z,8.10
2019-04-07T10:22:09.530Z,8.60
2019-04-07T10:23:42.977Z,8.18
2019-04-07T10:25:18.329Z,8.05
2019-04-07T10:26:40.734Z,7.50
2019-04-07T10:28:00.536Z,8.93
2019-04-07T10:29:27.588Z,8.88
2019-04-07T10:30:55.006Z,8.00
2019-04-07T10:32:18.947Z,8.35
2019-04-07T10:33:44.918Z,8.40
2019-04-07T10:35:12.467Z,7.00
2019-04-07T10:36:34.873Z,7.70
2019-04-07T10:38:00.720Z,8.55
2019-04-07T10:39:25.302Z,7.67
2019-04-07T10:40:55.567Z,8.05
2019-04-07T10:42:29.308Z,6.97
2019-04-07T10:43:45.164Z,9.00
2019-04-07T10:45:09.009Z,7.60
2019-04-07T10:46:36.240Z,7.78
2019-04-07T10:47:58.723Z,6.60
2019-04-07T10:49:10.405Z,6.95
2019-04-07T10:50:25.681Z,6.45
2019-04-07T10:51:52.465Z,7.20
2019-04-07T10:53:19.614Z,6.45
2019-04-07T10:54:45.155Z,6.30
2019-04-07T10:56:09.859Z,5.42
2019-04-07T10:57:36.715Z,6.00
2019-04-07T10:59:06.619Z,5.78
2019-04-07T11:00:34.139Z,6.17
2019-04-07T11:01:50.211Z,6.35
2019-04-07T11:03:14.140Z,6.95
2019-04-07T11:04:32.584Z,5.87
2019-04-07T11:05:46.981Z,6.05
2019-04-07T11:07:14.229Z,5.47
2019-04-07T11:08:40.027Z,5.55
2019-04-07T11:10:06.920Z,6.15
2019-04-07T11:11:30.319Z,6.42
2019-04-07T11:12:58.173Z,5.87
2019-04-07T11:14:13.479Z,5.30
2019-04-07T11:15:55.515Z,6.22
2019-04-07T11:17:10.127Z,5.75
2019-04-07T11:18:20.765Z,7.58
2019-04-07T11:19:47.816Z,7.10
2019-04-07T11:21:30.294Z,6.55
2019-04-07T11:22:53.173Z,5.80
2019-04-07T11:24:35.810Z,7.08
2019-04-07T11:26:06.948Z,5.90
2019-04-07T11:27:36.551Z,6.62
2019-04-07T11:28:57.199Z,5.45
2019-04-07T11:30:09.759Z,8.43
2019-04-07T11:31:19.676Z,6.67
2019-04-07T11:32:46.594Z,5.37
2019-04-07T11:33:59.012Z,5.85
2019-04-07T11:35:11.348Z,5.40
2019-04-07T11:36:27.104Z,5.40
2019-04-07T11:37:41.872Z,6.30
2019-04-07T11:38:51.721Z,5.20
2019-04-07T11:40:43.304Z,5.22
2019-04-07T11:41:54.762Z,5.47
2019-04-07T11:43:21.429Z,5.80
2019-04-07T11:44:35.710Z,4.65
2019-04-07T11:46:08.917Z,4.62
2019-04-07T11:47:28.630Z,4.83
2019-04-07T11:48:39.460Z,5.15
2019-04-07T11:49:51.340Z,5.78
2019-04-07T11:51:24.283Z,5.40
2019-04-07T11:52:35.269Z,5.40
2019-04-07T11:53:47.851Z,5.20
2019-04-07T11:55:05.312Z,4.90
2019-04-07T11:56:21.920Z,5.03
2019-04-07T11:58:09.868Z,5.33
2019-04-07T11:59:30.639Z,4.97
2019-04-07T12:00:48.806Z,4.90
2019-04-07T12:02:00.850Z,5.10
2019-04-07T12:03:26.859Z,4.80
2019-04-07T12:04:48.980Z,4.95
2019-04-07T12:06:14.237Z,5.55
2019-04-07T12:07:37.211Z,5.45
2019-04-07T12:09:00.200Z,5.20
2019-04-07T12:10:27.185Z,5.15
2019-04-07T12:11:50.445Z,5.05
2019-04-07T12:13:21.101Z,4.60
2019-04-07T12:14:52.445Z,5.30
2019-04-07T12:16:09.255Z,5.00
2019-04-07T12:17:33.976Z,4.50
2019-04-07T12:19:04.561Z,4.67
2019-04-07T12:20:16.327Z,4.78
2019-04-07T12:21:38.084Z,5.33
2019-04-07T12:23:22.924Z,5.25
2019-04-07T12:24:35.069Z,4.80
2019-04-07T12:25:57.642Z,5.10
2019-04-07T12:27:30.322Z,6.42
2019-04-07T12:28:50.419Z,4.83
2019-04-07T12:30:22.402Z,5.22
2019-04-07T12:31:45.241Z,5.35
2019-04-07T12:34:30.479Z,5.22
2019-04-07T12:36:09.434Z,5.22
2019-04-07T12:37:45.427Z,4.75
2019-04-07T12:39:18.857Z,5.20
2019-04-07T12:40:34.251Z,4.65
2019-04-07T12:41:59.098Z,5.12
2019-04-07T12:43:23.034Z,4.95
2019-04-07T12:44:50.810Z,6.17
2019-04-07T12:46:19.464Z,6.12
2019-04-07T12:48:01.513Z,5.10
2019-04-07T12:49:14.462Z,5.20
2019-04-07T12:50:51.135Z,6.42
2019-04-07T12:52:27.256Z,6.17
2019-04-07T12:54:01.819Z,5.85
2019-04-07T12:55:35.043Z,5.92
2019-04-07T12:57:02.508Z,5.75
2019-04-07T12:58:24.469Z,5.35
2019-04-07T12:59:52.923Z,5.35
2019-04-07T13:01:19.118Z,5.97
2019-04-07T13:02:28.533Z,5.92
2019-04-07T13:03:42.701Z,5.85
2019-04-07T13:05:16.598Z,5.75
2019-04-07T13:06:42.271Z,4.97
2019-04-07T13:08:05.950Z,5.42
2019-04-07T13:09:27.861Z,5.47
2019-04-07T13:10:41.655Z,5.50
2019-04-07T13:12:08.639Z,5.47
2019-04-07T13:13:35.347Z,5.33
2019-04-07T13:15:00.013Z,5.40
2019-04-07T13:16:26.246Z,5.47
2019-04-07T13:17:58.325Z,5.45
2019-04-07T13:19:21.690Z,5.30
2019-04-07T13:20:54.837Z,5.03
2019-04-07T13:22:13.934Z,5.30
2019-04-07T13:23:28.711Z,5.50
2019-04-07T13:24:58.248Z,5.28
2019-04-07T13:26:18.714Z,5.10
2019-04-07T13:27:52.115Z,5.00
2019-04-07T13:29:04.345Z,5.80
2019-04-07T13:30:23.577Z,5.42
2019-04-07T13:31:54.121Z,5.42
2019-04-07T13:33:28.399Z,5.20
2019-04-07T13:34:50.441Z,4.97
2019-04-07T13:36:20.402Z,5.10
2019-04-07T13:37:31.123Z,5.50
2019-04-07T13:38:47.952Z,5.15
2019-04-07T13:40:11.462Z,4.90
2019-04-07T13:41:38.652Z,5.25
2019-04-07T13:42:58.868Z,4.78
2019-04-07T13:44:23.161Z,5.22
2019-04-07T13:46:17.165Z,5.47
2019-04-07T13:47:42.079Z,5.80
2019-04-07T13:49:00.237Z,5.28
2019-04-07T13:50:40.658Z,6.03
2019-04-07T13:52:10.699Z,5.00
2019-04-07T13:53:34.022Z,5.60
2019-04-07T13:55:07.768Z,5.60
2019-04-07T13:56:42.020Z,4.53
2019-04-07T13:58:12.061Z,5.28
2019-04-07T13:59:39.291Z,5.05
2019-04-07T14:01:00.853Z,5.50
2019-04-07T14:02:15.457Z,5.45
2019-04-07T14:03:45.664Z,5.45
2019-04-07T14:05:18.291Z,5.00
2019-04-07T14:06:46.734Z,5.83
2019-04-07T14:08:04.265Z,5.87
2019-04-07T14:09:30.534Z,4.58
2019-04-07T14:10:57.938Z,5.47
2019-04-07T14:12:26.074Z,5.72
2019-04-07T14:13:52.471Z,5.62
2019-04-07T14:15:22.212Z,4.95
2019-04-07T14:16:48.762Z,5.15
2019-04-07T14:18:29.366Z,5.40
2019-04-07T14:19:59.255Z,5.30
2019-04-07T14:21:32.434Z,4.80
2019-04-07T14:22:55.581Z,5.15
2019-04-07T14:24:11.450Z,5.62
2019-04-07T14:25:28.818Z,5.45
2019-04-07T14:26:41.257Z,5.35
2019-04-07T14:28:03.678Z,5.12
2019-04-07T14:29:33.927Z,5.00
2019-04-07T14:30:46.975Z,5.65
2019-04-07T14:32:02.085Z,8.90
2019-04-07T14:33:31.786Z,5.55
2019-04-07T14:35:14.178Z,5.65
2019-04-07T14:36:46.711Z,6.50
2019-04-07T14:38:11.344Z,9.43
2019-04-07T14:39:32.500Z,6.08
2019-04-07T14:40:57.514Z,5.53
2019-04-07T14:42:30.552Z,5.33
2019-04-07T14:43:53.027Z,6.37
2019-04-07T14:45:12.242Z,5.85
2019-04-07T14:46:49.012Z,5.55
2019-04-07T14:48:03.353Z,5.20
2019-04-07T14:49:20.319Z,5.17
2019-04-07T14:50:34.799Z,5.30
2019-04-07T14:51:58.129Z,6.65
2019-04-07T14:53:35.487Z,4.95
2019-04-07T14:54:57.019Z,5.35
2019-04-07T14:56:18.629Z,6.25
2019-04-07T14:57:39.027Z,4.87
2019-04-07T14:59:06.587Z,5.53
2019-04-07T15:00:29.527Z,5.60
2019-04-07T15:01:55.713Z,5.33
2019-04-07T15:03:02.075Z,5.45
2019-04-07T15:04:07.024Z,5.75
2019-04-07T15:05:21.816Z,5.40
2019-04-07T15:06:29.205Z,6.42
2019-04-07T15:07:48.810Z,5.45
2019-04-07T15:09:07.216Z,7.17
2019-04-07T15:10:20.232Z,5.85
2019-04-07T15:11:29.753Z,5.05
2019-04-07T15:12:42.358Z,6.05
2019-04-07T15:13:47.484Z,6.85
2019-04-07T15:14:52.751Z,5.67
2019-04-07T15:15:58.226Z,6.53
2019-04-07T15:17:03.606Z,6.28
2019-04-07T15:18:08.345Z,7.05
2019-04-07T15:19:13.774Z,5.95
2019-04-07T15:20:18.434Z,6.10
2019-04-07T15:21:23.980Z,5.60
2019-04-07T15:22:30.994Z,6.37
2019-04-07T15:23:35.794Z,6.45
2019-04-07T15:24:41.141Z,6.12
2019-04-07T15:25:47.268Z,6.40
2019-04-07T15:26:53.865Z,6.75
2019-04-07T15:28:01.321Z,6.47
2019-04-07T15:29:09.293Z,6.47
2019-04-07T15:30:15.274Z,8.63
2019-04-07T15:31:20.785Z,6.03
2019-04-07T15:32:29.003Z,8.35
2019-04-07T15:33:34.142Z,7.95
2019-04-07T15:34:42.297Z,6.53
2019-04-07T15:35:53.380Z,6.83
2019-04-07T15:36:58.997Z,6.92
2019-04-07T15:38:04.189Z,7.28
2019-04-07T15:39:10.982Z,7.00
2019-04-07T15:40:15.403Z,7.83
2019-04-07T15:41:20.923Z,8.08
2019-04-07T15:42:35.197Z,8.03
2019-04-07T15:43:35.550Z,7.33
2019-04-07T15:44:42.205Z,8.35
2019-04-07T15:45:47.015Z,7.85
2019-04-07T15:46:53.381Z,7.60
2019-04-07T15:48:00.503Z,8.00
2019-04-07T15:49:06.696Z,7.70
2019-04-07T15:50:11.730Z,7.60
2019-04-07T15:51:17.543Z,7.87
2019-04-07T15:52:22.990Z,9.38
2019-04-07T15:53:27.962Z,7.65
2019-04-07T15:54:33.892Z,7.83
2019-04-07T15:55:47.594Z,10.35
2019-04-07T15:56:49.316Z,8.33
2019-04-07T15:57:54.933Z,8.00
2019-04-07T15:59:00.764Z,7.75
2019-04-07T16:00:06.169Z,7.67
2019-04-07T16:01:11.800Z,7.60
2019-04-07T16:02:17.276Z,7.75
2019-04-07T16:03:22.357Z,7.67
2019-04-07T16:04:29.301Z,8.75
2019-04-07T16:05:40.394Z,8.68
2019-04-07T16:06:41.876Z,7.83
2019-04-07T16:07:46.968Z,8.85
2019-04-07T16:08:52.050Z,7.92
2019-04-07T16:09:58.175Z,7.83
2019-04-07T16:11:03.780Z,7.65
2019-04-07T16:12:09.945Z,7.17
2019-04-07T16:13:15.232Z,7.60
2019-04-07T16:14:20.839Z,8.15
2019-04-07T16:15:26.157Z,8.20